createdAt,value
2022-11-25T00:03:55.029Z,12.74
2022-11-25T00:08:57.985Z,13.10
2022-11-25T00:13:59.442Z,13.00
2022-11-25T00:19:00.899Z,12.80
2022-11-25T00:24:06.437Z,12.74
2022-11-25T00:29:08.269Z,12.54
2022-11-25T00:34:13.517Z,12.73
2022-11-25T00:39:16.371Z,12.82
2022-11-25T00:44:37.704Z,12.56
2022-11-25T00:49:40.978Z,13.04
2022-11-25T00:54:42.684Z,12.95
2022-11-25T00:59:44.144Z,13.00
2022-11-25T01:04:46.054Z,12.85
2022-11-25T01:09:47.620Z,13.14
2022-11-25T01:14:49.068Z,13.01
2022-11-25T01:19:50.540Z,12.98
2022-11-25T01:24:52.003Z,13.09
2022-11-25T01:29:53.458Z,12.54
2022-11-25T01:34:54.936Z,12.41
2022-11-25T01:39:56.403Z,12.30
2022-11-25T01:45:24.614Z,12.60
2022-11-25T01:50:29.397Z,12.35
2022-11-25T01:55:30.984Z,12.77
2022-11-25T02:00:32.530Z,12.36
2022-11-25T02:05:52.139Z,12.42
2022-11-25T02:10:54.293Z,12.66
2022-11-25T02:15:55.742Z,12.80
2022-11-25T02:20:57.194Z,12.49
2022-11-25T02:25:58.686Z,12.47
2022-11-25T02:31:00.147Z,12.29
2022-11-25T02:36:03.106Z,12.32
2022-11-25T02:41:25.125Z,12.54
2022-11-25T02:46:26.703Z,12.45
2022-11-25T02:51:29.514Z,12.53
2022-11-25T02:56:31.933Z,12.17
2022-11-25T03:01:33.344Z,12.81
2022-11-25T03:06:34.906Z,12.95
2022-11-25T03:11:54.745Z,12.76
2022-11-25T03:16:56.301Z,12.59
2022-11-25T03:21:57.829Z,12.67
2022-11-25T03:26:59.394Z,12.65
2022-11-25T03:32:04.195Z,12.71
2022-11-25T03:37:08.417Z,12.27
2022-11-25T03:42:09.919Z,12.23
2022-11-25T03:47:11.387Z,11.94
2022-11-25T03:52:12.845Z,12.62
2022-11-25T03:57:14.335Z,12.43
2022-11-25T04:02:15.840Z,12.38
2022-11-25T04:07:17.490Z,12.56
2022-11-25T04:12:37.328Z,12.11
2022-11-25T04:17:38.790Z,12.61
2022-11-25T04:22:40.391Z,12.41
2022-11-25T04:27:41.853Z,12.18
2022-11-25T04:32:43.309Z,11.98
2022-11-25T04:37:44.755Z,12.50
2022-11-25T04:42:46.212Z,12.46
2022-11-25T04:47:47.672Z,12.44
2022-11-25T04:52:49.118Z,12.20
2022-11-25T04:57:50.568Z,11.78
2022-11-25T05:02:52.074Z,12.16
2022-11-25T05:07:53.603Z,11.90
2022-11-25T05:12:55.096Z,11.97
2022-11-25T05:17:56.538Z,11.74
2022-11-25T05:22:58.016Z,11.88
2022-11-25T05:28:00.293Z,12.27
2022-11-25T05:33:01.748Z,12.07
2022-11-25T05:38:04.240Z,12.43
2022-11-25T05:43:05.690Z,11.91
2022-11-25T05:48:08.300Z,12.54
2022-11-25T05:53:09.797Z,12.32
2022-11-25T05:58:11.246Z,12.44
2022-11-25T06:03:12.797Z,12.20
2022-11-25T06:08:14.364Z,11.97
2022-11-25T06:13:15.829Z,12.00
2022-11-25T06:18:17.383Z,12.06
2022-11-25T06:23:18.867Z,11.89
2022-11-25T06:28:20.323Z,11.55
2022-11-25T06:33:21.788Z,11.11
2022-11-25T06:38:23.255Z,12.40
2022-11-25T06:43:24.711Z,11.92
2022-11-25T06:48:26.178Z,12.09
2022-11-25T06:53:27.715Z,11.85
2022-11-25T06:58:35.920Z,12.06
2022-11-25T07:03:37.766Z,12.49
2022-11-25T07:08:39.314Z,12.08
2022-11-25T07:13:40.774Z,12.11
2022-11-25T07:18:42.254Z,12.27
2022-11-25T07:23:44.160Z,12.55
2022-11-25T07:28:45.704Z,12.33
2022-11-25T07:33:47.235Z,12.35
2022-11-25T07:38:48.810Z,12.34
2022-11-25T07:43:52.489Z,12.57
2022-11-25T07:48:54.983Z,12.56
2022-11-25T07:53:56.846Z,12.69
2022-11-25T07:58:58.304Z,12.29
2022-11-25T08:03:59.772Z,12.03
2022-11-25T08:09:01.220Z,12.26
2022-11-25T08:14:02.841Z,12.34
2022-11-25T08:19:07.093Z,12.44
2022-11-25T08:24:10.123Z,12.87
2022-11-25T08:29:13.773Z,13.02
2022-11-25T08:34:33.346Z,12.70
2022-11-25T08:44:56.301Z,13.27
2022-11-25T08:49:57.907Z,13.23
2022-11-25T08:54:59.359Z,13.36
2022-11-25T09:00:00.824Z,13.05
2022-11-25T09:05:02.298Z,13.52
2022-11-25T09:10:04.085Z,13.39
2022-11-25T09:15:05.976Z,13.47
2022-11-25T09:20:07.742Z,13.71
2022-11-25T09:25:09.309Z,13.95
2022-11-25T09:30:11.155Z,14.01
2022-11-25T09:35:12.611Z,14.17
2022-11-25T09:40:47.859Z,14.21
2022-11-25T09:46:23.831Z,14.12
2022-11-25T09:51:32.252Z,14.07
2022-11-25T09:56:42.922Z,13.80
2022-11-25T10:01:50.122Z,14.02
2022-11-25T10:06:57.051Z,14.18
2022-11-25T10:12:03.309Z,13.94
2022-11-25T10:17:10.409Z,14.10
2022-11-25T10:22:21.028Z,14.11
2022-11-25T10:27:46.604Z,14.13
2022-11-25T10:32:59.321Z,14.14
2022-11-25T10:38:03.816Z,13.16
2022-11-25T10:43:14.272Z,13.84
2022-11-25T10:48:44.035Z,14.04
2022-11-25T10:54:11.384Z,14.28
2022-11-25T10:59:22.200Z,14.18
2022-11-25T11:04:23.652Z,14.22
2022-11-25T11:09:38.855Z,14.49
2022-11-25T11:14:40.355Z,14.45
2022-11-25T11:19:41.813Z,14.40
2022-11-25T11:24:43.278Z,14.39
2022-11-25T11:29:44.744Z,14.77
2022-11-25T11:35:06.774Z,14.82
2022-11-25T11:40:30.835Z,14.81
2022-11-25T11:45:53.964Z,14.73
2022-11-25T11:51:13.751Z,14.77
2022-11-25T11:56:36.692Z,14.78
2022-11-25T12:02:00.464Z,14.57
2022-11-25T12:07:15.919Z,14.66
2022-11-25T12:12:19.150Z,14.61
2022-11-25T12:17:27.496Z,14.36
2022-11-25T12:22:34.753Z,14.79
2022-11-25T12:27:47.783Z,14.00
2022-11-25T12:33:06.561Z,13.97
2022-11-25T12:38:29.855Z,14.16
2022-11-25T12:43:42.940Z,14.43
2022-11-25T12:48:44.460Z,14.42
2022-11-25T12:54:19.734Z,14.15
2022-11-25T12:59:33.414Z,14.20
2022-11-25T13:10:54.992Z,13.91
2022-11-25T13:15:57.292Z,13.79
2022-11-25T13:21:08.899Z,13.96
2022-11-25T13:26:28.477Z,13.37
2022-11-25T13:32:01.666Z,13.81
2022-11-25T13:37:33.473Z,13.74
2022-11-25T13:42:43.340Z,14.16
2022-11-25T13:47:48.391Z,13.66
2022-11-25T13:52:59.445Z,13.96
2022-11-25T13:58:02.233Z,14.51
2022-11-25T14:03:18.954Z,13.90
2022-11-25T14:08:26.343Z,13.60
2022-11-25T14:14:01.049Z,13.75
2022-11-25T14:19:51.678Z,14.03
2022-11-25T14:24:55.467Z,13.20
2022-11-25T14:30:04.983Z,14.12
2022-11-25T14:35:45.768Z,14.11
2022-11-25T14:40:54.633Z,14.04
2022-11-25T14:46:12.934Z,14.39
2022-11-25T14:51:14.520Z,14.32
2022-11-25T14:56:23.428Z,14.68
2022-11-25T15:01:32.529Z,14.24
2022-11-25T15:06:38.809Z,14.36
2022-11-25T15:11:40.280Z,14.13
2022-11-25T15:16:43.331Z,14.36
2022-11-25T15:22:14.900Z,12.43
2022-11-25T15:27:25.888Z,13.20
2022-11-25T15:32:31.218Z,13.34
2022-11-25T15:37:32.789Z,13.03
2022-11-25T15:42:34.275Z,13.72
2022-11-25T15:47:35.736Z,13.94
2022-11-25T15:52:38.027Z,14.28
2022-11-25T15:57:40.130Z,14.76
2022-11-25T16:02:41.521Z,14.45
2022-11-25T16:07:52.344Z,14.48
2022-11-25T16:13:20.889Z,13.90
2022-11-25T16:18:39.771Z,14.47
2022-11-25T16:23:44.618Z,14.34
2022-11-25T16:28:56.433Z,14.42
2022-11-25T16:34:11.748Z,14.49
2022-11-25T16:39:13.234Z,14.43
2022-11-25T16:44:19.076Z,14.34
2022-11-25T16:49:21.126Z,14.05
2022-11-25T16:54:22.846Z,14.72
2022-11-25T16:59:29.948Z,14.57
2022-11-25T17:04:31.404Z,14.36
2022-11-25T17:09:32.850Z,14.73
2022-11-25T17:14:34.708Z,14.89
2022-11-25T17:19:36.540Z,14.22
2022-11-25T17:24:38.398Z,14.37
2022-11-25T17:29:41.558Z,14.64
2022-11-25T17:34:43.364Z,13.29
2022-11-25T17:39:44.833Z,13.59
2022-11-25T17:44:51.274Z,14.23
2022-11-25T17:49:54.531Z,14.66
2022-11-25T17:54:56.117Z,14.88
2022-11-25T17:59:57.632Z,14.84
2022-11-25T18:04:59.087Z,14.53
2022-11-25T18:10:00.548Z,15.27
2022-11-25T18:15:07.887Z,14.92
2022-11-25T18:20:16.820Z,15.08
2022-11-25T18:25:26.079Z,15.07
2022-11-25T18:30:28.840Z,15.15
2022-11-25T18:35:36.121Z,15.10
2022-11-25T18:40:40.263Z,15.16
2022-11-25T18:45:41.798Z,15.17
2022-11-25T18:50:43.571Z,15.01
2022-11-25T18:55:45.028Z,15.01
2022-11-25T19:00:50.157Z,15.00
2022-11-25T19:05:54.081Z,14.89
2022-11-25T19:10:55.661Z,14.86
2022-11-25T19:16:00.168Z,14.61
2022-11-25T19:21:02.115Z,14.36
2022-11-25T19:26:07.604Z,14.78
2022-11-25T19:31:09.135Z,14.79
2022-11-25T19:36:16.982Z,14.91
2022-11-25T19:41:18.528Z,15.00
2022-11-25T19:46:40.949Z,15.07
2022-11-25T19:51:51.840Z,15.34
2022-11-25T19:56:53.639Z,15.36
2022-11-25T20:01:55.482Z,15.14
2022-11-25T20:06:57.049Z,14.93
2022-11-25T20:12:08.062Z,14.82
2022-11-25T20:17:12.908Z,14.75
2022-11-25T20:22:16.844Z,15.02
2022-11-25T20:27:18.299Z,14.97
2022-11-25T20:32:22.556Z,14.89
2022-11-25T20:37:24.990Z,15.09
2022-11-25T20:42:26.465Z,14.60
2022-11-25T20:47:28.247Z,14.91
2022-11-25T20:52:33.155Z,14.95
2022-11-25T20:57:36.398Z,15.01
2022-11-25T21:02:37.927Z,14.67
2022-11-25T21:07:39.599Z,14.93
2022-11-25T21:12:41.142Z,15.26
2022-11-25T21:17:42.615Z,14.96
2022-11-25T21:22:46.162Z,15.24
2022-11-25T21:27:47.617Z,15.22
2022-11-25T21:32:50.539Z,15.18
2022-11-25T21:37:51.994Z,15.05
2022-11-25T21:42:53.446Z,14.93
2022-11-25T21:47:54.921Z,15.06
2022-11-25T21:52:57.124Z,15.26
2022-11-25T21:57:58.583Z,15.23
2022-11-25T22:03:00.089Z,15.27
2022-11-25T22:08:01.695Z,15.30
2022-11-25T22:13:04.014Z,15.31
2022-11-25T22:18:05.484Z,15.32
2022-11-25T22:23:15.633Z,15.21
2022-11-25T22:28:21.569Z,15.02
2022-11-25T22:33:28.981Z,15.35
2022-11-25T22:38:30.593Z,14.58
2022-11-25T22:43:34.564Z,15.26
2022-11-25T22:48:36.648Z,14.81
2022-11-25T22:53:38.099Z,15.04
2022-11-25T22:58:39.742Z,14.60
2022-11-25T23:03:41.231Z,15.00
2022-11-25T23:08:42.693Z,15.16
2022-11-25T23:13:44.188Z,15.30
2022-11-25T23:18:46.018Z,15.40
2022-11-25T23:23:47.530Z,15.17
2022-11-25T23:28:49.128Z,15.02
2022-11-25T23:33:50.594Z,14.80
2022-11-25T23:38:56.401Z,15.18
2022-11-25T23:44:16.983Z,14.16
2022-11-25T23:49:23.968Z,14.72
2022-11-25T23:54:40.568Z,15.04
2022-11-25T23:59:42.518Z,14.61
